TNCC/CUR METAR and TAF weather

Enter ICAO airport designator
Station Type Date Time Source
TNCC METAR 2018/12/10 08:00 UTC NOAA

TNCC 100800Z AUTO 12009KT 9999 NSC 25/20 Q1014 NOSIG


Station Type Date Time Source
TNCC Decoded METAR 2018/12/10 08:00 UTC NOAA

Hato Airport, Curacao, Netherlands Antilles (TNCC) 12-12N 068-58W 67M
Dec 10, 2018 - 03:00 AM EST / 2018.12.10 0800 UTC
Wind: from the ESE (120 degrees) at 10 MPH (9 KT):0
Visibility: greater than 7 mile(s):0
Temperature: 77 F (25 C)
Dew Point: 68 F (20 C)
Relative Humidity: 73%
Pressure (altimeter): 29.94 in. Hg (1014 hPa)
ob: TNCC 100800Z AUTO 12009KT 9999 NSC 25/20 Q1014 NOSIG
cycle: 8

Station Type Date Time Source
TNCC TAF 2018/12/10 06:52 UTC NOAA

TAF TNCC 100342Z 1006/1106 10015G25KT 9999 SCT022
TEMPO 1006/1012 BKN015


Example: see airport list